Time;durP1;ratioP1;P1;durP2;ratioP2;P2;SDS_P1;SDS_P2;PMS_P1;PMS_P2;Temp;Humidity;BMP_temperature;BMP_pressure;BME280_temperature;BME280_humidity;BME280_pressure;Samples;Min_cycle;Max_cycle;Signal;HPM_P1;HPM_P2
2022/02/01 00:01:29;;;;;;;3.80;1.42;;;4.10;99.90;;;;;;6246588;23;20014;-87
2022/02/01 00:04:00;;;;;;;2.80;1.38;;;4.10;99.90;;;;;;6246256;23;19996;-87
2022/02/01 00:06:53;;;;;;;4.70;1.20;;;4.10;99.90;;;;;;6219395;23;20004;-86
2022/02/01 00:09:28;;;;;;;3.50;1.30;;;4.10;99.90;;;;;;6219317;23;20032;-87
2022/02/01 00:17:24;;;;;;;1.75;1.00;;;4.10;99.90;;;;;;6247088;23;20031;-87
2022/02/01 00:20:13;;;;;;;3.03;1.20;;;4.10;99.90;;;;;;6245955;23;20031;-87
2022/02/01 00:36:45;;;;;;;2.83;0.98;;;4.00;99.90;;;;;;6246161;23;20043;-86
2022/02/01 00:39:05;;;;;;;1.42;1.08;;;4.10;99.90;;;;;;6240190;23;20011;-87
2022/02/01 00:41:34;;;;;;;4.63;1.15;;;4.00;99.90;;;;;;6219100;23;20008;-86
2022/02/01 00:44:01;;;;;;;3.05;1.10;;;4.10;99.90;;;;;;6219155;23;20007;-86
2022/02/01 00:46:27;;;;;;;2.22;1.10;;;4.10;99.90;;;;;;6246188;23;20004;-86
2022/02/01 00:48:53;;;;;;;2.45;0.98;;;4.10;99.90;;;;;;6218902;23;20008;-87
2022/02/01 00:51:19;;;;;;;2.13;1.00;;;4.10;99.90;;;;;;6245904;23;19996;-86
2022/02/01 00:53:45;;;;;;;1.65;1.00;;;4.00;99.90;;;;;;6218962;23;20008;-86
2022/02/01 00:56:13;;;;;;;2.05;1.17;;;4.10;99.90;;;;;;6219028;23;20010;-86
2022/02/01 00:58:39;;;;;;;1.55;1.00;;;4.10;99.90;;;;;;6219012;23;20026;-87
2022/02/01 01:01:05;;;;;;;1.30;0.73;;;4.00;99.90;;;;;;6218919;23;20004;-86
2022/02/01 01:03:31;;;;;;;4.32;1.13;;;4.10;99.90;;;;;;6218967;23;20448;-87
2022/02/01 01:05:56;;;;;;;2.22;0.98;;;4.10;99.90;;;;;;6218883;23;20314;-87
2022/02/01 01:08:22;;;;;;;1.20;1.10;;;4.00;99.90;;;;;;6245906;23;19996;-85
2022/02/01 01:10:48;;;;;;;2.78;1.00;;;4.10;99.90;;;;;;6219084;23;20004;-87
2022/02/01 01:15:51;;;;;;;1.90;0.93;;;4.10;99.90;;;;;;6245988;23;20004;-86
2022/02/01 01:46:15;;;;;;;3.50;1.20;;;4.00;99.90;;;;;;6247948;23;20118;-87
2022/02/01 01:54:01;;;;;;;3.08;1.20;;;4.00;99.90;;;;;;6247878;23;20062;-87
2022/02/01 01:56:30;;;;;;;2.10;0.90;;;4.00;99.90;;;;;;6220486;23;20011;-87
2022/02/01 01:58:55;;;;;;;4.72;1.27;;;4.00;99.90;;;;;;6220561;23;20341;-86
2022/02/01 02:01:21;;;;;;;4.38;1.30;;;4.00;99.90;;;;;;6220468;23;20007;-86
2022/02/01 02:03:48;;;;;;;5.70;1.50;;;4.00;99.90;;;;;;6220432;23;20004;-86
2022/02/01 02:06:16;;;;;;;4.97;1.80;;;4.00;99.90;;;;;;6220287;23;19996;-86
2022/02/01 02:08:46;;;;;;;4.95;1.38;;;4.00;99.90;;;;;;6220365;23;20004;-86
2022/02/01 02:12:08;;;;;;;5.53;1.55;;;4.00;99.90;;;;;;6247672;23;20004;-86
2022/02/01 02:17:06;;;;;;;5.63;1.50;;;4.00;99.90;;;;;;6125620;23;20118;-87
2022/02/01 02:19:33;;;;;;;5.75;1.85;;;4.00;99.90;;;;;;6100577;23;20371;-88
2022/02/01 02:22:05;;;;;;;3.75;1.30;;;4.00;99.90;;;;;;6157532;23;20008;-87
2022/02/01 02:24:34;;;;;;;3.53;1.40;;;4.00;99.90;;;;;;6220255;23;20000;-87
2022/02/01 02:27:00;;;;;;;4.60;1.50;;;4.00;99.90;;;;;;6220211;23;20004;-87
2022/02/01 02:29:27;;;;;;;5.05;1.73;;;4.00;99.90;;;;;;6220233;23;20087;-87
2022/02/01 02:31:52;;;;;;;4.35;1.33;;;4.00;99.90;;;;;;6220132;23;20444;-87
2022/02/01 02:34:19;;;;;;;4.00;1.40;;;4.00;99.90;;;;;;6247044;23;20000;-87
2022/02/01 02:36:58;;;;;;;4.85;1.77;;;4.00;99.90;;;;;;6220118;23;20004;-86
2022/02/01 02:47:36;;;;;;;5.10;1.83;;;4.00;99.90;;;;;;6155303;23;20002;-87
2022/02/01 02:50:03;;;;;;;6.30;1.67;;;4.00;99.90;;;;;;6129519;23;20104;-86
2022/02/01 02:52:30;;;;;;;9.85;1.83;;;4.00;99.90;;;;;;6172514;23;20376;-86
2022/02/01 02:54:57;;;;;;;4.35;1.45;;;4.00;99.90;;;;;;6246752;23;20451;-88
2022/02/01 02:57:24;;;;;;;5.85;1.75;;;4.00;99.90;;;;;;6220017;23;20010;-86
2022/02/01 02:59:50;;;;;;;6.05;1.77;;;4.00;99.90;;;;;;6219926;23;20004;-87
2022/02/01 03:02:16;;;;;;;6.75;1.35;;;4.00;99.90;;;;;;6219827;23;20014;-86
2022/02/01 03:04:41;;;;;;;8.35;2.00;;;4.00;99.90;;;;;;6219922;23;20434;-87
2022/02/01 03:07:07;;;;;;;5.57;1.60;;;4.00;99.90;;;;;;6246602;23;20011;-86
2022/02/01 03:09:39;;;;;;;5.60;1.80;;;4.00;99.90;;;;;;6219861;23;20436;-87
2022/02/01 03:12:06;;;;;;;6.65;1.70;;;4.00;99.90;;;;;;6219813;23;20015;-87
2022/02/01 03:17:19;;;;;;;10.00;2.20;;;4.00;99.90;;;;;;6256843;23;20022;-87
2022/02/01 03:19:57;;;;;;;3.85;1.40;;;4.00;99.90;;;;;;6246627;23;20809;-86
2022/02/01 03:22:30;;;;;;;6.25;1.88;;;4.00;99.90;;;;;;6219769;23;20008;-87
2022/02/01 03:24:58;;;;;;;7.75;2.08;;;4.00;99.90;;;;;;6246550;23;20317;-87
2022/02/01 03:27:24;;;;;;;6.30;1.75;;;4.00;99.90;;;;;;6246535;23;20006;-87
2022/02/01 03:29:50;;;;;;;8.65;2.08;;;4.00;99.90;;;;;;6219568;23;20000;-86
2022/02/01 03:32:17;;;;;;;7.15;1.70;;;4.00;99.90;;;;;;6219632;23;20070;-87
2022/02/01 03:34:43;;;;;;;8.40;2.17;;;4.00;99.90;;;;;;6219470;23;20008;-86
2022/02/01 03:37:08;;;;;;;7.30;2.17;;;4.00;99.90;;;;;;6219504;23;20004;-87
2022/02/01 03:39:34;;;;;;;6.15;1.88;;;4.00;99.90;;;;;;6219567;23;20000;-87
2022/02/01 03:42:01;;;;;;;5.50;1.80;;;4.00;99.90;;;;;;6246241;23;20079;-87
2022/02/01 03:44:27;;;;;;;8.27;2.08;;;4.00;99.90;;;;;;6219462;23;20011;-87
2022/02/01 03:47:01;;;;;;;8.30;2.20;;;4.00;99.90;;;;;;6219385;23;20042;-86
2022/02/01 03:49:36;;;;;;;7.90;1.60;;;3.90;99.90;;;;;;6214223;23;20017;-87
2022/02/01 03:52:03;;;;;;;5.60;1.75;;;4.00;99.90;;;;;;6214401;23;20008;-86
2022/02/01 03:54:30;;;;;;;7.28;2.15;;;4.00;99.90;;;;;;6214700;23;20032;-87
2022/02/01 03:56:57;;;;;;;8.48;2.20;;;4.00;99.90;;;;;;6214336;23;20055;-86
2022/02/01 03:59:23;;;;;;;8.88;2.20;;;4.00;99.90;;;;;;6214356;23;20012;-87
2022/02/01 04:01:55;;;;;;;10.25;2.22;;;3.90;99.90;;;;;;6215793;23;20005;-87
2022/02/01 04:04:27;;;;;;;11.88;2.30;;;4.00;99.90;;;;;;6215373;23;20011;-87
2022/02/01 04:06:53;;;;;;;8.43;1.98;;;3.90;99.90;;;;;;6214283;23;20000;-87
2022/02/01 04:09:20;;;;;;;6.68;1.83;;;4.00;99.90;;;;;;6214298;23;20063;-87
2022/02/01 04:11:45;;;;;;;11.80;1.88;;;3.90;99.90;;;;;;6214268;23;20008;-87
2022/02/01 04:14:16;;;;;;;8.18;1.90;;;4.00;99.90;;;;;;6214305;23;20071;-87
2022/02/01 04:16:42;;;;;;;6.72;2.10;;;3.90;99.90;;;;;;6214232;23;20087;-87
2022/02/01 04:19:07;;;;;;;10.23;2.42;;;3.90;99.90;;;;;;6214199;23;20039;-87
2022/02/01 04:21:33;;;;;;;13.55;2.75;;;4.00;99.90;;;;;;6214152;23;20013;-87
2022/02/01 04:24:00;;;;;;;9.68;2.25;;;3.90;99.90;;;;;;6214213;23;20342;-87
2022/02/01 04:26:26;;;;;;;14.82;3.03;;;3.90;99.90;;;;;;6214275;23;20004;-87
2022/02/01 04:28:52;;;;;;;9.00;2.22;;;3.90;99.90;;;;;;6214198;23;20004;-87
2022/02/01 04:31:17;;;;;;;11.15;2.38;;;3.90;99.90;;;;;;6214133;23;20397;-87
2022/02/01 04:33:43;;;;;;;7.85;2.22;;;3.90;99.90;;;;;;6214378;23;20001;-87
2022/02/01 04:36:09;;;;;;;10.40;2.33;;;3.90;99.90;;;;;;6214092;23;20092;-87
2022/02/01 04:38:37;;;;;;;9.85;2.63;;;3.90;99.90;;;;;;6214057;23;20111;-86
2022/02/01 04:41:03;;;;;;;11.40;2.30;;;3.90;99.90;;;;;;6214245;23;20024;-87
2022/02/01 04:43:30;;;;;;;10.13;2.38;;;3.90;99.90;;;;;;6214105;23;20004;-87
2022/02/01 04:45:55;;;;;;;9.40;2.28;;;3.90;99.90;;;;;;6214133;23;20005;-88
2022/02/01 04:48:21;;;;;;;11.48;2.40;;;3.90;99.90;;;;;;6213911;23;20012;-87
2022/02/01 04:50:47;;;;;;;10.65;2.10;;;3.90;99.90;;;;;;6214059;23;20001;-87
2022/02/01 04:53:13;;;;;;;13.40;2.78;;;3.90;99.90;;;;;;6215905;23;20008;-87
2022/02/01 04:58:06;;;;;;;10.90;2.30;;;3.90;99.90;;;;;;6216147;23;20009;-88
2022/02/01 05:00:32;;;;;;;13.05;2.75;;;3.90;99.90;;;;;;6214071;23;20392;-87
2022/02/01 05:03:00;;;;;;;12.75;3.03;;;3.90;99.90;;;;;;6213874;23;20384;-87
2022/02/01 05:05:30;;;;;;;8.57;2.08;;;3.90;99.90;;;;;;6213887;23;20059;-87
2022/02/01 05:08:01;;;;;;;11.32;2.30;;;3.90;99.90;;;;;;6214330;23;20003;-88
2022/02/01 05:10:28;;;;;;;11.57;2.42;;;3.90;99.90;;;;;;6215470;23;20005;-87
2022/02/01 05:12:56;;;;;;;10.20;2.53;;;3.90;99.90;;;;;;6216051;23;20063;-87
2022/02/01 05:15:22;;;;;;;6.50;2.05;;;3.90;99.90;;;;;;6217466;23;20337;-87
2022/02/01 05:17:54;;;;;;;7.57;2.10;;;3.90;99.90;;;;;;6215884;23;20008;-88
2022/02/01 05:20:40;;;;;;;11.85;2.40;;;3.90;99.90;;;;;;6216063;23;20341;-87
2022/02/01 05:23:06;;;;;;;12.23;2.58;;;3.90;99.90;;;;;;6215795;23;20083;-87
2022/02/01 05:25:32;;;;;;;11.93;3.22;;;3.90;99.90;;;;;;6217499;23;20027;-87
2022/02/01 05:27:59;;;;;;;9.75;2.33;;;3.80;99.90;;;;;;6215779;23;20001;-87
2022/02/01 05:30:26;;;;;;;10.38;2.47;;;3.80;99.90;;;;;;6217723;23;20004;-87
2022/02/01 05:32:53;;;;;;;11.25;2.42;;;3.90;99.90;;;;;;6215829;23;20440;-87
2022/02/01 05:35:19;;;;;;;9.13;2.90;;;3.90;99.90;;;;;;6217315;23;20071;-87
2022/02/01 05:37:44;;;;;;;9.88;2.33;;;3.90;99.90;;;;;;6217309;23;20088;-88
2022/02/01 05:40:11;;;;;;;11.70;2.50;;;3.80;99.90;;;;;;6215913;23;20020;-87
2022/02/01 05:42:45;;;;;;;11.73;2.28;;;3.90;99.90;;;;;;6215659;23;20035;-87
2022/02/01 05:45:11;;;;;;;11.45;2.42;;;3.90;99.90;;;;;;6215794;23;20328;-88
2022/02/01 05:47:37;;;;;;;15.63;2.65;;;3.90;99.90;;;;;;6215984;23;20330;-87
2022/02/01 05:50:03;;;;;;;11.30;2.22;;;3.90;99.90;;;;;;6215463;23;20013;-88
2022/02/01 05:52:29;;;;;;;13.90;2.38;;;3.90;99.90;;;;;;6215576;23;20008;-88
2022/02/01 05:54:54;;;;;;;18.70;2.90;;;3.80;99.90;;;;;;6215932;23;20135;-87
2022/02/01 05:57:20;;;;;;;11.25;2.40;;;3.90;99.90;;;;;;6217538;23;20001;-87
2022/02/01 05:59:46;;;;;;;15.13;2.80;;;3.90;99.90;;;;;;6215364;23;20092;-88
2022/02/01 06:02:11;;;;;;;13.77;2.80;;;3.90;99.90;;;;;;6215440;23;20009;-88
2022/02/01 06:04:37;;;;;;;8.50;2.30;;;3.80;99.90;;;;;;6215472;23;20001;-88
2022/02/01 06:07:03;;;;;;;8.15;2.33;;;3.80;99.90;;;;;;6215306;23;20012;-88
2022/02/01 06:09:29;;;;;;;9.98;2.22;;;3.80;99.90;;;;;;6215448;23;20024;-88
2022/02/01 06:11:54;;;;;;;15.30;2.60;;;3.90;99.90;;;;;;6215415;23;20030;-88
2022/02/01 06:14:20;;;;;;;11.07;2.15;;;3.80;99.90;;;;;;6217075;23;20009;-88
2022/02/01 06:16:46;;;;;;;16.13;3.05;;;3.80;99.90;;;;;;6215720;23;20020;-88
2022/02/01 06:19:11;;;;;;;12.75;2.22;;;3.80;99.90;;;;;;6215399;23;20086;-88
2022/02/01 06:21:37;;;;;;;12.90;2.65;;;3.80;99.90;;;;;;6214663;23;20008;-87
2022/02/01 06:24:06;;;;;;;11.50;2.75;;;3.80;99.90;;;;;;6216906;23;20070;-88
2022/02/01 06:26:32;;;;;;;11.45;2.75;;;3.80;99.90;;;;;;6215304;23;20004;-88
2022/02/01 06:28:58;;;;;;;9.98;2.20;;;3.80;99.90;;;;;;6215243;23;20007;-88
2022/02/01 06:31:23;;;;;;;10.60;2.20;;;3.80;99.90;;;;;;6215543;23;20088;-88
2022/02/01 06:33:49;;;;;;;12.50;2.72;;;3.80;99.90;;;;;;6215350;23;20027;-87
2022/02/01 06:36:15;;;;;;;13.93;2.70;;;3.80;99.90;;;;;;6215226;23;20007;-88
2022/02/01 06:38:40;;;;;;;14.00;2.92;;;3.80;99.90;;;;;;6215273;23;20009;-87
2022/02/01 06:41:06;;;;;;;13.93;2.65;;;3.80;99.90;;;;;;6215272;23;20008;-87
2022/02/01 06:43:32;;;;;;;9.40;2.65;;;3.80;99.90;;;;;;6215222;23;20005;-87
2022/02/01 06:46:00;;;;;;;10.30;2.33;;;3.80;99.90;;;;;;6215204;23;20015;-88
2022/02/01 06:48:26;;;;;;;11.48;2.53;;;3.80;99.90;;;;;;6214925;23;20356;-88
2022/02/01 06:50:52;;;;;;;12.00;2.33;;;3.80;99.90;;;;;;6215078;23;20015;-87
2022/02/01 06:53:20;;;;;;;12.75;2.95;;;3.80;99.90;;;;;;6215004;23;20441;-87
2022/02/01 06:55:58;;;;;;;7.28;2.55;;;3.80;99.90;;;;;;6214988;23;20009;-87
2022/02/01 06:58:24;;;;;;;11.15;2.60;;;3.80;99.90;;;;;;6215038;23;20004;-88
2022/02/01 07:00:50;;;;;;;11.98;2.70;;;3.80;99.90;;;;;;6214965;23;20337;-87
2022/02/01 07:03:15;;;;;;;13.52;2.47;;;3.80;99.90;;;;;;6214832;23;20009;-88
2022/02/01 07:05:41;;;;;;;12.65;2.92;;;3.80;99.90;;;;;;6214834;23;20079;-87
2022/02/01 07:08:07;;;;;;;11.68;2.75;;;3.80;99.90;;;;;;6214853;23;20000;-88
2022/02/01 07:10:33;;;;;;;12.18;2.45;;;3.80;99.90;;;;;;6214821;23;20001;-88
2022/02/01 07:12:59;;;;;;;10.18;2.60;;;3.80;99.90;;;;;;6216394;23;20008;-88
2022/02/01 07:15:25;;;;;;;8.65;2.33;;;3.80;99.90;;;;;;6216357;23;20123;-88
2022/02/01 07:17:53;;;;;;;10.75;2.58;;;3.80;99.90;;;;;;6216330;23;20004;-88
2022/02/01 07:20:19;;;;;;;7.28;2.45;;;3.80;99.90;;;;;;6216376;23;20444;-88
2022/02/01 07:22:47;;;;;;;12.35;2.38;;;3.80;99.90;;;;;;6216262;23;20011;-88
2022/02/01 07:25:22;;;;;;;11.75;2.40;;;3.80;99.90;;;;;;6214748;23;20004;-88
2022/02/01 07:27:49;;;;;;;9.13;2.67;;;3.80;99.90;;;;;;6214679;23;19996;-88
2022/02/01 07:30:19;;;;;;;16.75;2.78;;;3.80;99.90;;;;;;6216222;23;20077;-88
2022/02/01 07:32:46;;;;;;;9.80;2.30;;;3.80;99.90;;;;;;6216055;23;20075;-87
2022/02/01 07:35:12;;;;;;;8.70;2.30;;;3.80;99.90;;;;;;6214779;23;20009;-88
2022/02/01 07:37:38;;;;;;;12.23;2.50;;;3.80;99.90;;;;;;6214658;23;20005;-88
2022/02/01 07:40:06;;;;;;;11.45;2.97;;;3.80;99.90;;;;;;6214532;23;20396;-87
2022/02/01 07:42:33;;;;;;;9.75;2.38;;;3.80;99.90;;;;;;6215975;23;20001;-87
2022/02/01 07:45:02;;;;;;;10.43;2.65;;;3.80;99.90;;;;;;6214481;23;20001;-87
2022/02/01 07:47:27;;;;;;;8.13;2.40;;;3.80;99.90;;;;;;6214464;23;20084;-87
2022/02/01 07:49:53;;;;;;;13.00;3.00;;;3.80;99.90;;;;;;6242508;23;20444;-88
2022/02/01 07:52:19;;;;;;;14.65;2.72;;;3.80;99.90;;;;;;6219575;23;20328;-87
2022/02/01 07:54:46;;;;;;;12.48;2.75;;;3.80;99.90;;;;;;6219421;23;20004;-87
2022/02/01 07:57:12;;;;;;;13.52;2.35;;;3.80;99.90;;;;;;6219383;23;20008;-88
2022/02/01 07:59:38;;;;;;;7.57;2.60;;;3.80;99.90;;;;;;6219347;23;20004;-88
2022/02/01 08:02:05;;;;;;;11.05;2.70;;;3.80;99.90;;;;;;6219326;23;20315;-88
2022/02/01 08:04:34;;;;;;;10.48;2.67;;;3.80;99.90;;;;;;6219480;23;20027;-86
2022/02/01 08:07:01;;;;;;;11.63;3.10;;;3.80;99.90;;;;;;6219291;23;20000;-88
2022/02/01 08:09:36;;;;;;;9.90;2.95;;;3.90;99.90;;;;;;6246178;23;20031;-88
2022/02/01 08:12:10;;;;;;;9.43;2.70;;;3.90;99.90;;;;;;6219651;23;20010;-88
2022/02/01 08:17:07;;;;;;;13.65;2.30;;;3.90;99.90;;;;;;6246518;23;20008;-87
2022/02/01 08:19:55;;;;;;;9.13;2.92;;;3.90;99.90;;;;;;6219372;23;20011;-87
2022/02/01 08:22:37;;;;;;;8.90;2.22;;;4.00;99.90;;;;;;6219161;23;20003;-87
2022/02/01 08:25:04;;;;;;;8.52;2.50;;;4.10;99.90;;;;;;6246368;23;20003;-87
2022/02/01 08:27:31;;;;;;;13.48;2.58;;;4.20;99.90;;;;;;6219095;23;20086;-88
2022/02/01 08:29:58;;;;;;;15.13;2.85;;;4.20;99.90;;;;;;6219169;23;20000;-88
2022/02/01 08:32:23;;;;;;;14.48;2.97;;;4.20;99.90;;;;;;6219164;23;20095;-88
2022/02/01 08:34:49;;;;;;;11.55;2.80;;;4.20;99.90;;;;;;6219109;23;20047;-87
2022/02/01 08:37:15;;;;;;;16.48;3.00;;;4.10;99.90;;;;;;6219143;23;20008;-88
2022/02/01 08:39:41;;;;;;;8.38;2.97;;;4.10;99.90;;;;;;6219224;23;20066;-88
2022/02/01 08:42:07;;;;;;;11.38;2.50;;;4.10;99.90;;;;;;6219064;23;20003;-88
2022/02/01 08:44:35;;;;;;;10.10;2.72;;;4.10;99.90;;;;;;6220207;23;20011;-87
2022/02/01 08:47:00;;;;;;;13.77;2.60;;;4.10;99.90;;;;;;6221243;23;20439;-87
2022/02/01 08:49:26;;;;;;;10.23;2.90;;;4.10;99.90;;;;;;6216457;23;20099;-88
2022/02/01 08:52:01;;;;;;;10.95;2.50;;;4.20;99.90;;;;;;6216088;23;20000;-87
2022/02/01 08:54:29;;;;;;;14.27;2.72;;;4.30;99.90;;;;;;6217731;23;20373;-88
2022/02/01 08:59:40;;;;;;;9.95;2.67;;;4.80;99.90;;;;;;6217958;23;20015;-88
2022/02/01 09:02:07;;;;;;;5.78;1.90;;;4.70;99.90;;;;;;6216008;23;20092;-88
2022/02/01 09:04:33;;;;;;;8.57;2.05;;;4.60;99.90;;;;;;6216085;23;20011;-88
2022/02/01 09:07:00;;;;;;;8.43;2.67;;;4.50;99.90;;;;;;6217538;23;20001;-88
2022/02/01 09:09:27;;;;;;;12.48;2.58;;;4.40;99.90;;;;;;6217468;23;20000;-88
2022/02/01 09:11:54;;;;;;;9.38;2.30;;;4.30;99.90;;;;;;6215954;23;20040;-88
2022/02/01 09:14:20;;;;;;;12.45;2.80;;;4.20;99.90;;;;;;6217551;23;20059;-88
2022/02/01 09:16:47;;;;;;;9.10;2.63;;;4.20;99.90;;;;;;6217492;23;20493;-88
2022/02/01 09:19:13;;;;;;;9.23;3.13;;;4.20;99.90;;;;;;6215864;23;20005;-88
2022/02/01 09:21:40;;;;;;;10.48;2.45;;;4.10;99.90;;;;;;6215880;23;20337;-88
2022/02/01 09:24:06;;;;;;;8.13;2.13;;;4.10;99.90;;;;;;6215837;23;20131;-88
2022/02/01 09:26:32;;;;;;;6.38;2.03;;;4.10;99.90;;;;;;6215915;23;20004;-89
2022/02/01 09:28:58;;;;;;;7.55;2.38;;;4.00;99.90;;;;;;6215943;23;20005;-89
2022/02/01 09:31:24;;;;;;;9.38;2.38;;;4.00;99.90;;;;;;6215732;23;20529;-89
2022/02/01 09:33:49;;;;;;;9.02;2.05;;;4.00;99.90;;;;;;6215788;23;20012;-88
2022/02/01 09:36:15;;;;;;;12.30;2.08;;;4.00;99.90;;;;;;6217746;23;19997;-89
2022/02/01 09:38:42;;;;;;;7.68;2.28;;;4.10;99.90;;;;;;6215746;23;20080;-90
2022/02/01 09:41:08;;;;;;;11.05;2.20;;;4.10;99.90;;;;;;6215915;23;20066;-89
2022/02/01 09:43:34;;;;;;;9.75;2.17;;;4.10;99.90;;;;;;6215692;23;20024;-87
2022/02/01 09:46:00;;;;;;;7.80;2.10;;;4.10;99.90;;;;;;6215755;23;20008;-88
2022/02/01 09:48:27;;;;;;;5.95;2.00;;;4.20;99.90;;;;;;6215394;23;20016;-88
2022/02/01 09:50:53;;;;;;;10.90;2.38;;;4.20;99.90;;;;;;6215578;23;20338;-87
2022/02/01 09:53:20;;;;;;;6.05;2.00;;;4.20;99.90;;;;;;6215623;23;20005;-88
2022/02/01 09:55:47;;;;;;;16.30;2.55;;;4.20;99.90;;;;;;6215468;23;20093;-88
2022/02/01 09:58:14;;;;;;;10.90;2.78;;;4.30;99.90;;;;;;6215644;23;20083;-87
2022/02/01 10:00:45;;;;;;;7.57;2.28;;;4.40;99.90;;;;;;6215585;23;20012;-89
2022/02/01 10:03:16;;;;;;;6.53;2.00;;;4.40;99.90;;;;;;6215474;23;20008;-88
2022/02/01 10:05:43;;;;;;;7.25;2.08;;;4.40;99.90;;;;;;6216959;23;19997;-88
2022/02/01 10:08:09;;;;;;;13.10;2.58;;;4.50;99.90;;;;;;6215434;23;20051;-88
2022/02/01 10:10:35;;;;;;;8.45;2.85;;;4.70;99.90;;;;;;6215343;23;20001;-88
2022/02/01 10:13:15;;;;;;;6.63;2.30;;;4.80;99.90;;;;;;6215378;23;20009;-88
2022/02/01 10:16:15;;;;;;;6.00;2.03;;;4.90;99.90;;;;;;6215419;23;20058;-87
2022/02/01 10:18:41;;;;;;;5.93;2.13;;;5.00;99.90;;;;;;6215385;23;20004;-88
2022/02/01 10:21:14;;;;;;;10.10;2.53;;;5.00;99.90;;;;;;6216318;23;20058;-87
2022/02/01 10:23:45;;;;;;;8.77;2.08;;;5.10;99.90;;;;;;6216829;23;20337;-88
2022/02/01 10:26:21;;;;;;;10.70;1.88;;;5.10;99.90;;;;;;6215302;23;20027;-86
2022/02/01 10:28:59;;;;;;;6.57;2.13;;;5.10;99.90;;;;;;6216004;23;20306;-87
2022/02/01 10:36:47;;;;;;;7.70;2.15;;;4.80;99.90;;;;;;6227079;23;20007;-89
2022/02/01 10:39:23;;;;;;;7.88;1.98;;;4.70;99.90;;;;;;6215245;23;20039;-87
2022/02/01 10:41:58;;;;;;;5.95;2.05;;;4.70;99.90;;;;;;6216238;23;20413;-88
2022/02/01 10:44:43;;;;;;;6.15;1.92;;;4.60;99.90;;;;;;6216892;23;20008;-88
2022/02/01 10:47:11;;;;;;;9.13;2.13;;;4.50;99.90;;;;;;6215214;23;20008;-89
2022/02/01 10:49:37;;;;;;;8.75;1.88;;;4.50;99.90;;;;;;6215121;23;20020;-88
2022/02/01 10:52:06;;;;;;;6.93;2.00;;;4.50;99.90;;;;;;6216577;23;20422;-89
2022/02/01 10:54:34;;;;;;;4.20;1.67;;;4.40;99.90;;;;;;6215283;23;20007;-88
2022/02/01 10:57:03;;;;;;;7.68;1.92;;;4.40;99.90;;;;;;6216708;23;20059;-88
2022/02/01 10:59:29;;;;;;;7.60;2.00;;;4.40;99.90;;;;;;6215155;23;20290;-88
2022/02/01 11:01:57;;;;;;;5.85;1.80;;;4.40;99.90;;;;;;6216615;23;20418;-88
2022/02/01 11:04:24;;;;;;;6.15;1.92;;;4.40;99.90;;;;;;6215234;23;20040;-90
2022/02/01 11:06:53;;;;;;;7.32;1.77;;;4.40;99.90;;;;;;6214769;23;20008;-87
2022/02/01 11:09:21;;;;;;;8.90;2.30;;;4.40;99.90;;;;;;6215550;23;20001;-90
2022/02/01 11:11:55;;;;;;;10.35;2.28;;;4.30;99.90;;;;;;6215407;23;20020;-88
2022/02/01 11:14:22;;;;;;;;;;;4.30;99.90;;;;;;6215422;23;20009;-89
2022/02/01 11:16:48;;;;;;;8.20;1.90;;;4.30;99.90;;;;;;6214914;23;19899;-88
2022/02/01 11:19:14;;;;;;;10.80;2.00;;;4.20;99.90;;;;;;6214670;23;20512;-87
2022/02/01 11:21:51;;;;;;;9.32;2.20;;;4.20;99.90;;;;;;6216213;23;20009;-88
2022/02/01 11:24:23;;;;;;;11.05;2.03;;;4.20;99.90;;;;;;6214739;23;20024;-88
2022/02/01 11:27:16;;;;;;;9.40;2.00;;;4.20;99.90;;;;;;6216228;23;20020;-87
2022/02/01 11:32:34;;;;;;;7.20;2.15;;;4.20;99.90;;;;;;6226776;23;20070;-89
2022/02/01 11:35:05;;;;;;;7.10;2.00;;;4.20;99.90;;;;;;6214675;23;20092;-87
2022/02/01 11:37:31;;;;;;;7.38;1.80;;;4.20;99.90;;;;;;6215377;23;20334;-85
2022/02/01 11:39:58;;;;;;;6.22;1.77;;;4.30;99.90;;;;;;6215335;23;20004;-89
2022/02/01 11:42:34;;;;;;;9.10;1.92;;;4.30;99.90;;;;;;6214486;23;20008;-88
2022/02/01 11:45:05;;;;;;;8.20;1.83;;;4.30;99.90;;;;;;6214557;23;20024;-89
2022/02/01 11:47:37;;;;;;;5.97;1.75;;;4.30;99.90;;;;;;6214511;23;20008;-88
2022/02/01 11:50:10;;;;;;;8.73;1.95;;;4.40;99.90;;;;;;6219285;23;20114;-87
2022/02/01 11:52:57;;;;;;;6.32;1.85;;;4.40;99.90;;;;;;6219334;23;20437;-86
2022/02/01 11:55:29;;;;;;;6.60;1.63;;;4.40;99.90;;;;;;6219423;23;20004;-86
2022/02/01 11:58:04;;;;;;;6.97;2.10;;;4.40;99.90;;;;;;6219438;23;20032;-86
2022/02/01 12:00:38;;;;;;;4.65;1.63;;;4.30;99.90;;;;;;6219370;23;20005;-88
2022/02/01 12:03:04;;;;;;;5.18;1.88;;;4.30;99.90;;;;;;6219294;23;20015;-86
2022/02/01 12:05:33;;;;;;;5.68;1.85;;;4.30;99.90;;;;;;6219281;23;20440;-88
2022/02/01 12:08:13;;;;;;;6.35;1.80;;;4.30;99.90;;;;;;6219412;23;20078;-90
2022/02/01 12:10:44;;;;;;;4.55;2.10;;;4.30;99.90;;;;;;6220234;23;20365;-86
2022/02/01 12:13:12;;;;;;;6.18;1.75;;;4.30;99.90;;;;;;6219502;23;20015;-89
2022/02/01 12:15:39;;;;;;;5.47;1.65;;;4.30;99.90;;;;;;6219343;23;20083;-88
2022/02/01 12:18:08;;;;;;;6.53;2.03;;;4.20;99.90;;;;;;6219255;23;20004;-88
2022/02/01 12:20:37;;;;;;;7.00;1.67;;;4.20;99.90;;;;;;6219529;23;20004;-85
2022/02/01 12:23:21;;;;;;;8.60;1.90;;;4.20;99.90;;;;;;6219302;23;20031;-89
2022/02/01 12:25:47;;;;;;;4.85;1.48;;;4.20;99.90;;;;;;6219408;23;20015;-84
2022/02/01 12:28:18;;;;;;;5.50;1.60;;;4.20;99.90;;;;;;6219214;23;20417;-88
2022/02/01 12:30:44;;;;;;;3.83;1.60;;;4.20;99.90;;;;;;6219395;23;20057;-85
2022/02/01 12:33:22;;;;;;;5.85;2.03;;;4.20;99.90;;;;;;6219353;23;20379;-90
2022/02/01 12:35:52;;;;;;;5.72;1.75;;;4.10;99.90;;;;;;6246787;23;20352;-89
2022/02/01 12:38:20;;;;;;;4.40;1.55;;;4.10;99.90;;;;;;6246108;23;19996;-87
2022/02/01 12:41:12;;;;;;;10.93;2.00;;;4.10;99.90;;;;;;6219413;23;20020;-88
2022/02/01 12:46:56;;;;;;;4.20;1.42;;;4.10;99.90;;;;;;6190246;23;20000;-88
2022/02/01 12:49:36;;;;;;;10.77;2.28;;;4.10;99.90;;;;;;6219137;23;20016;-89
2022/02/01 12:52:04;;;;;;;3.00;1.30;;;4.20;99.90;;;;;;6219117;23;20098;-87
2022/02/01 12:54:36;;;;;;;6.35;1.50;;;4.20;99.90;;;;;;6219177;23;20011;-86
2022/02/01 12:57:14;;;;;;;9.25;2.22;;;4.20;99.90;;;;;;6220265;23;20041;-89
2022/02/01 12:59:56;;;;;;;5.13;1.90;;;4.20;99.90;;;;;;6219174;23;20068;-87
2022/02/01 13:02:30;;;;;;;2.80;1.15;;;4.10;99.90;;;;;;6219117;23;20038;-87
2022/02/01 13:05:06;;;;;;;;;;;4.10;99.90;;;;;;6246499;23;20329;-85
2022/02/01 13:16:15;;;;;;;3.40;1.10;;;4.20;99.90;;;;;;6256110;23;20437;-86
2022/02/01 13:21:18;;;;;;;5.05;1.40;;;4.20;99.90;;;;;;6257173;23;20080;-88
2022/02/01 13:23:59;;;;;;;3.50;1.30;;;4.20;99.90;;;;;;6219003;23;20055;-85
2022/02/01 13:26:30;;;;;;;2.15;1.23;;;4.20;99.90;;;;;;6245910;23;20425;-85
2022/02/01 13:29:14;;;;;;;3.03;1.23;;;4.20;99.90;;;;;;6218929;23;19997;-85
2022/02/01 13:31:45;;;;;;;2.80;1.27;;;4.20;99.90;;;;;;6220629;23;20306;-84
2022/02/01 13:34:13;;;;;;;3.03;1.27;;;4.10;99.90;;;;;;6247788;23;20007;-86
2022/02/01 13:36:56;;;;;;;7.35;1.65;;;4.10;99.90;;;;;;6247761;23;20050;-87
2022/02/01 13:39:30;;;;;;;3.00;1.15;;;4.10;99.90;;;;;;6220882;23;20030;-86
2022/02/01 13:41:56;;;;;;;3.88;1.13;;;4.10;99.90;;;;;;6220805;23;20012;-87
2022/02/01 13:44:22;;;;;;;3.13;1.30;;;4.10;99.90;;;;;;6220852;23;20371;-87
2022/02/01 13:46:58;;;;;;;4.88;1.20;;;4.10;99.90;;;;;;6220831;23;20039;-86
2022/02/01 13:49:24;;;;;;;6.63;1.63;;;4.10;99.90;;;;;;6220602;23;20319;-86
2022/02/01 13:51:51;;;;;;;3.25;1.20;;;4.10;99.90;;;;;;6247641;23;20063;-90
2022/02/01 13:54:18;;;;;;;5.47;1.40;;;4.10;99.90;;;;;;6220879;23;20008;-85
2022/02/01 13:56:47;;;;;;;3.63;1.25;;;4.00;99.90;;;;;;6220805;23;20007;-87
2022/02/01 13:59:26;;;;;;;4.00;1.50;;;4.10;99.90;;;;;;6247545;23;20111;-88
2022/02/01 14:02:10;;;;;;;3.20;1.40;;;4.00;99.90;;;;;;6247533;23;20451;-86
2022/02/01 14:04:49;;;;;;;3.20;1.40;;;4.00;99.90;;;;;;6220801;23;20005;-88
2022/02/01 14:07:37;;;;;;;3.65;1.48;;;4.00;99.90;;;;;;6220676;23;20007;-89
2022/02/01 14:10:25;;;;;;;6.22;1.70;;;4.00;99.90;;;;;;6247461;23;19996;-89
2022/02/01 14:26:50;;;;;;;2.25;1.20;;;4.00;99.90;;;;;;6247418;23;20007;-85
2022/02/01 14:32:11;;;;;;;5.25;1.38;;;4.00;99.90;;;;;;6257910;23;20008;-90
2022/02/01 14:34:40;;;;;;;5.53;1.70;;;4.00;99.90;;;;;;6220699;23;20019;-84
2022/02/01 14:37:16;;;;;;;6.13;2.00;;;3.90;99.90;;;;;;6220654;23;20337;-90
2022/02/01 14:45:12;;;;;;;4.93;1.60;;;3.90;99.90;;;;;;6247729;23;19906;-89
2022/02/01 14:47:38;;;;;;;5.72;2.00;;;3.90;99.90;;;;;;6221144;23;20337;-89
2022/02/01 14:50:07;;;;;;;3.35;1.80;;;3.90;99.90;;;;;;6247247;23;20008;-89
2022/02/01 14:52:33;;;;;;;6.82;2.45;;;3.90;99.90;;;;;;6220641;23;20000;-90
2022/02/01 14:55:14;;;;;;;3.67;1.67;;;3.90;99.90;;;;;;6220456;23;20441;-89
2022/02/01 15:13:37;;;;;;;6.55;2.35;;;3.80;99.90;;;;;;6247585;23;20081;-89
2022/02/01 15:16:04;;;;;;;5.22;2.22;;;3.90;99.90;;;;;;6246974;23;20000;-89
2022/02/01 15:18:30;;;;;;;4.47;2.30;;;3.80;99.90;;;;;;6220005;23;20000;-89
2022/02/01 15:20:56;;;;;;;3.90;2.00;;;3.90;99.90;;;;;;6220039;23;20079;-90
2022/02/01 15:23:22;;;;;;;4.22;1.95;;;3.90;99.90;;;;;;6221181;23;20421;-90